Главная страница
METAR-TAF:

METAR-TAF

Аэропорты :

Керманшах, Иран

широта: 34-16N, долгота: 047-07E, высота над уровнем моря: 1320 м

Текущие метеонаблюдения

Эта сводка был подготовлена 59 минут назад, в 23:00 UTC
Ветер 4 Узел от восточный
Температура 20°C
Влажность 35%
Давление 1011 hPa
Видимость 10 км и более
Нет облачности ниже 1500 м, и нет кучево-дождевой облачности

METAR: OICC 132300Z 09004KT CAVOK 20/04 Q1011 A2986

Время: 04:29 (23:59 UTC)

Прогноз

Эта сводка был подготовлена 59 минут назад, в 23:00 UTC
Прогноз действительный с 14-го 00 UTC до 14-го 09 UTC
Ветер 8 Узел от западно-северо-западный
Видимость: 8000 м

TAF: OICC 132300Z 1400/1409 30008KT 8000 NSC

Метеонаблюдения и прогнозы для более 4000 аэропортов (сводки METAR и TAF).

Имеющиеся станции представлены на карте желтыми и красными точками.

Чтобы увидеть название станции, наведите на нее мышь.

Затем щелкните, чтобы увидеть метеонаблюдения и метеопрогнозы.

Управление картой: чтобы увеличить масштаб, щелкните зеленые кнопки с черным крестиком; чтобы уменьшить масштаб, щелкните зеленую кнопку с тире; для просмотра соседних карт щелкайте зеленые стрелки.


METAR-TAF: